Time;durP1;ratioP1;P1;durP2;ratioP2;P2;SDS_P1;SDS_P2;PMS_P1;PMS_P2;Temp;Humidity;BMP_temperature;BMP_pressure;BME280_temperature;BME280_humidity;BME280_pressure;Samples;Min_cycle;Max_cycle;Signal;HPM_P1;HPM_P2
2023/11/01 00:01:52;;;;;;;12.82;4.43;;;10.60;99.90;;;;;;5022211;28;20053;-89
2023/11/01 00:04:17;;;;;;;24.08;4.78;;;10.60;99.90;;;;;;5005385;28;20022;-89
2023/11/01 00:06:43;;;;;;;12.23;4.15;;;10.70;99.90;;;;;;5026555;28;20411;-89
2023/11/01 00:09:09;;;;;;;17.73;5.60;;;10.70;99.90;;;;;;5026289;28;20068;-89
2023/11/01 00:11:34;;;;;;;11.25;4.30;;;10.70;99.90;;;;;;5023448;28;20077;-89
2023/11/01 00:14:00;;;;;;;10.27;4.15;;;10.70;99.90;;;;;;5009132;28;20034;-89
2023/11/01 00:16:29;;;;;;;11.65;3.90;;;10.70;99.90;;;;;;5011236;28;20117;-90
2023/11/01 00:18:54;;;;;;;12.68;3.97;;;10.70;99.90;;;;;;5014828;28;20034;-90
2023/11/01 00:21:20;;;;;;;9.20;3.55;;;10.70;99.90;;;;;;5007039;28;20087;-90
2023/11/01 00:23:47;;;;;;;13.77;4.47;;;10.70;99.90;;;;;;5010803;28;20022;-91
2023/11/01 00:26:12;;;;;;;12.23;4.55;;;10.80;99.90;;;;;;5013621;28;20018;-90
2023/11/01 00:28:38;;;;;;;11.57;4.25;;;10.80;99.90;;;;;;5031033;28;20075;-90
2023/11/01 00:31:04;;;;;;;13.75;4.32;;;10.80;99.90;;;;;;5015101;28;20037;-90
2023/11/01 00:33:29;;;;;;;9.60;3.90;;;10.70;99.90;;;;;;5007464;28;20030;-89
2023/11/01 00:35:55;;;;;;;14.10;4.13;;;10.70;99.90;;;;;;5030503;28;20497;-89
2023/11/01 00:38:21;;;;;;;15.52;4.45;;;10.70;99.90;;;;;;5007972;28;20109;-89
2023/11/01 00:40:47;;;;;;;11.45;4.40;;;10.70;99.90;;;;;;5026985;28;20034;-90
2023/11/01 00:43:13;;;;;;;13.02;3.95;;;10.70;99.90;;;;;;5012699;28;20034;-89
2023/11/01 00:45:39;;;;;;;11.23;3.90;;;10.70;99.90;;;;;;5030581;28;20774;-90
2023/11/01 00:48:05;;;;;;;17.10;4.40;;;10.60;99.90;;;;;;5027873;28;20061;-89
2023/11/01 00:50:31;;;;;;;15.02;5.10;;;10.70;99.90;;;;;;5007529;28;20041;-90
2023/11/01 00:52:57;;;;;;;17.77;4.32;;;10.70;99.90;;;;;;5031125;28;20038;-90
2023/11/01 00:55:23;;;;;;;15.55;4.00;;;10.70;99.90;;;;;;5013744;28;20493;-90
2023/11/01 00:57:49;;;;;;;10.20;3.80;;;10.70;99.90;;;;;;5013483;28;20033;-89
2023/11/01 01:00:15;;;;;;;14.77;3.80;;;10.70;99.90;;;;;;5010084;28;20419;-90
2023/11/01 01:02:42;;;;;;;15.35;3.33;;;10.70;99.90;;;;;;5008647;28;20022;-90
2023/11/01 01:05:08;;;;;;;12.45;4.10;;;10.70;99.90;;;;;;5028360;28;20038;-89
2023/11/01 01:07:33;;;;;;;13.57;4.00;;;10.70;99.90;;;;;;5011142;28;20113;-90
2023/11/01 01:09:59;;;;;;;11.77;3.63;;;10.70;99.90;;;;;;5013300;28;20052;-90
2023/11/01 01:12:25;;;;;;;13.95;4.35;;;10.70;99.90;;;;;;5029139;28;20401;-89
2023/11/01 01:14:50;;;;;;;14.68;3.55;;;10.70;99.90;;;;;;5007835;28;20037;-90
2023/11/01 01:17:16;;;;;;;13.05;3.80;;;10.70;99.90;;;;;;4998798;28;20117;-90
2023/11/01 01:19:42;;;;;;;14.25;3.60;;;10.70;99.90;;;;;;5006092;28;20041;-89
2023/11/01 01:22:07;;;;;;;14.95;4.22;;;10.70;99.90;;;;;;5006679;28;20045;-89
2023/11/01 01:24:33;;;;;;;23.20;5.47;;;10.70;99.90;;;;;;5028612;28;20029;-90
2023/11/01 01:26:58;;;;;;;16.50;4.47;;;10.70;99.90;;;;;;5027501;28;20398;-88
2023/11/01 01:29:24;;;;;;;14.55;4.43;;;10.70;99.90;;;;;;5029230;28;20036;-89
2023/11/01 01:31:50;;;;;;;11.70;3.75;;;10.70;99.90;;;;;;5029134;28;20116;-89
2023/11/01 01:34:15;;;;;;;11.95;3.47;;;10.70;99.90;;;;;;5005556;28;20062;-90
2023/11/01 01:36:41;;;;;;;14.15;3.97;;;10.60;99.90;;;;;;5024560;28;20115;-89
2023/11/01 01:39:07;;;;;;;15.73;4.35;;;10.70;99.90;;;;;;5008753;28;20454;-89
2023/11/01 01:41:32;;;;;;;11.57;4.20;;;10.60;99.90;;;;;;5013664;28;20022;-89
2023/11/01 01:43:58;;;;;;;9.63;3.03;;;10.70;99.90;;;;;;5011186;28;20026;-89
2023/11/01 01:46:28;;;;;;;9.15;3.35;;;10.70;99.90;;;;;;5013674;28;20033;-89
2023/11/01 01:48:54;;;;;;;10.75;3.90;;;10.60;99.90;;;;;;5008249;28;20073;-88
2023/11/01 01:51:19;;;;;;;12.13;3.25;;;10.60;99.90;;;;;;5008749;28;20512;-88
2023/11/01 01:53:47;;;;;;;8.68;2.92;;;10.60;99.90;;;;;;5011955;28;20508;-89
2023/11/01 01:56:14;;;;;;;10.70;3.25;;;10.60;99.90;;;;;;5025863;28;20091;-89
2023/11/01 01:58:43;;;;;;;11.75;3.50;;;10.60;99.90;;;;;;5028099;28;20099;-89
2023/11/01 02:01:09;;;;;;;9.60;2.75;;;10.60;99.90;;;;;;5028887;28;20033;-88
2023/11/01 02:03:36;;;;;;;12.30;3.13;;;10.60;99.90;;;;;;5004498;28;20080;-88
2023/11/01 02:06:03;;;;;;;8.32;3.00;;;10.50;99.90;;;;;;5012337;28;20041;-88
2023/11/01 02:08:29;;;;;;;10.00;2.53;;;10.50;99.90;;;;;;5010466;28;20040;-88
2023/11/01 02:10:55;;;;;;;11.40;2.83;;;10.50;99.90;;;;;;5025424;28;20394;-89
2023/11/01 02:13:21;;;;;;;10.10;3.20;;;10.50;99.90;;;;;;5011558;28;20026;-88
2023/11/01 02:15:48;;;;;;;7.15;2.70;;;10.50;99.90;;;;;;5028354;28;20084;-88
2023/11/01 02:18:13;;;;;;;10.52;2.42;;;10.50;99.90;;;;;;5026961;28;20110;-89
2023/11/01 02:20:41;;;;;;;11.40;3.00;;;10.50;99.90;;;;;;5028658;28;20105;-89
2023/11/01 02:23:13;;;;;;;14.90;3.28;;;10.50;99.90;;;;;;5008883;28;20557;-88
2023/11/01 02:25:40;;;;;;;10.70;2.78;;;10.50;99.90;;;;;;5004766;28;20022;-88
2023/11/01 02:28:07;;;;;;;10.60;3.05;;;10.50;99.90;;;;;;5027969;28;20405;-88
2023/11/01 02:30:33;;;;;;;9.80;2.80;;;10.40;99.90;;;;;;5004267;28;20509;-89
2023/11/01 02:32:58;;;;;;;7.53;2.40;;;10.50;99.90;;;;;;5011384;28;20048;-89
2023/11/01 02:35:24;;;;;;;11.82;2.70;;;10.50;99.90;;;;;;5011835;28;20080;-89
2023/11/01 02:37:50;;;;;;;13.20;3.42;;;10.40;99.90;;;;;;5006878;28;20393;-90
2023/11/01 02:40:16;;;;;;;8.10;3.03;;;10.40;99.90;;;;;;5027304;28;20029;-90
2023/11/01 02:42:44;;;;;;;12.25;3.53;;;10.40;99.90;;;;;;5027638;28;20457;-90
2023/11/01 02:45:10;;;;;;;10.60;4.18;;;10.50;99.90;;;;;;5007810;28;20099;-89
2023/11/01 02:47:37;;;;;;;11.75;3.63;;;10.40;99.90;;;;;;5003816;28;20097;-90
2023/11/01 02:50:09;;;;;;;11.55;3.60;;;10.40;99.90;;;;;;5002228;28;20037;-90
2023/11/01 02:52:35;;;;;;;25.05;6.00;;;10.40;99.90;;;;;;5027971;28;20030;-89
2023/11/01 02:55:06;;;;;;;12.15;4.10;;;10.40;99.90;;;;;;5024216;28;20128;-90
2023/11/01 02:57:32;;;;;;;12.43;4.00;;;10.40;99.90;;;;;;5009395;28;20033;-90
2023/11/01 02:59:59;;;;;;;14.52;3.80;;;10.40;99.90;;;;;;5001755;28;20513;-90
2023/11/01 03:02:25;;;;;;;11.10;3.70;;;;;;;;;;5023547;28;20385;-90
2023/11/01 03:04:51;;;;;;;10.93;3.30;;;10.40;99.90;;;;;;5026893;28;20030;-90
2023/11/01 03:07:16;;;;;;;9.18;3.13;;;10.40;99.90;;;;;;5002701;28;20125;-90
2023/11/01 03:09:43;;;;;;;12.00;2.83;;;10.40;99.90;;;;;;5006962;28;20034;-89
2023/11/01 03:12:09;;;;;;;7.93;2.88;;;10.40;99.90;;;;;;5007497;28;20026;-89
2023/11/01 03:14:38;;;;;;;10.27;3.00;;;10.40;99.90;;;;;;5011333;28;20038;-89
2023/11/01 03:17:05;;;;;;;9.60;3.05;;;10.40;99.90;;;;;;5028040;28;20160;-90
2023/11/01 03:19:31;;;;;;;7.60;3.03;;;10.50;99.90;;;;;;5006712;28;20030;-89
2023/11/01 03:21:56;;;;;;;11.50;3.30;;;10.40;99.90;;;;;;5027042;28;20040;-90
2023/11/01 03:24:22;;;;;;;8.63;2.90;;;10.40;99.90;;;;;;5009950;28;20496;-90
2023/11/01 03:26:48;;;;;;;11.52;3.70;;;10.40;99.90;;;;;;5025837;28;20018;-90
2023/11/01 03:29:13;;;;;;;10.38;3.13;;;10.40;99.90;;;;;;5007305;28;20026;-90
2023/11/01 03:31:39;;;;;;;8.48;2.63;;;10.50;99.90;;;;;;5003850;28;20801;-90
2023/11/01 03:34:04;;;;;;;11.48;2.78;;;10.40;99.90;;;;;;5006590;28;20064;-89
2023/11/01 03:36:30;;;;;;;9.30;2.92;;;10.50;99.90;;;;;;5010936;28;20030;-90
2023/11/01 03:38:56;;;;;;;9.15;2.65;;;10.40;99.90;;;;;;5025722;28;20022;-90
2023/11/01 03:41:22;;;;;;;10.48;2.83;;;10.40;99.90;;;;;;5004545;28;20174;-90
2023/11/01 03:43:48;;;;;;;6.57;2.50;;;10.40;99.90;;;;;;5019835;28;20079;-90
2023/11/01 03:46:13;;;;;;;6.90;2.70;;;10.40;99.90;;;;;;5010214;28;20485;-90
2023/11/01 03:48:39;;;;;;;6.90;2.28;;;10.40;99.90;;;;;;5022996;28;20845;-90
2023/11/01 03:51:05;;;;;;;9.27;2.70;;;10.40;99.90;;;;;;5010223;28;20389;-90
2023/11/01 03:53:31;;;;;;;9.68;2.42;;;10.40;99.90;;;;;;5025912;28;20030;-90
2023/11/01 03:55:57;;;;;;;6.25;2.15;;;10.40;99.90;;;;;;5007436;28;20034;-90
2023/11/01 03:58:23;;;;;;;8.98;2.40;;;10.40;99.90;;;;;;5026122;28;20092;-90
2023/11/01 04:00:50;;;;;;;6.95;2.55;;;10.50;99.90;;;;;;5025645;28;20038;-91
2023/11/01 04:03:16;;;;;;;7.95;2.28;;;10.50;99.90;;;;;;5002131;28;20385;-90
2023/11/01 04:05:41;;;;;;;6.75;2.28;;;10.50;99.90;;;;;;5025210;28;20022;-90
2023/11/01 04:08:07;;;;;;;9.77;2.75;;;10.50;99.90;;;;;;5025835;28;20030;-90
2023/11/01 04:10:33;;;;;;;12.70;2.80;;;10.50;99.90;;;;;;5006921;28;20033;-90
2023/11/01 04:12:59;;;;;;;11.32;2.42;;;10.50;99.90;;;;;;5005340;28;20112;-90
2023/11/01 04:15:24;;;;;;;7.15;2.85;;;10.40;99.90;;;;;;5003901;28;20029;-90
2023/11/01 04:17:50;;;;;;;7.22;2.25;;;10.40;99.90;;;;;;5004928;28;20033;-90
2023/11/01 04:20:16;;;;;;;11.38;2.30;;;10.40;99.90;;;;;;5025962;28;20038;-90
2023/11/01 04:22:41;;;;;;;11.05;2.80;;;10.40;99.90;;;;;;5009365;28;20026;-90
2023/11/01 04:25:11;;;;;;;5.65;2.30;;;10.40;99.90;;;;;;5026076;28;20025;-90
2023/11/01 04:27:41;;;;;;;8.57;2.28;;;10.40;99.90;;;;;;5007584;28;20036;-90
2023/11/01 04:30:12;;;;;;;5.93;1.92;;;10.40;99.90;;;;;;5025810;28;20095;-90
2023/11/01 04:32:38;;;;;;;9.43;2.90;;;10.40;99.90;;;;;;5025974;28;20057;-90
2023/11/01 04:35:09;;;;;;;8.68;2.65;;;10.40;99.90;;;;;;5006266;28;20795;-90
2023/11/01 04:37:38;;;;;;;10.13;2.70;;;10.40;99.90;;;;;;5007694;28;20037;-90
2023/11/01 04:40:12;;;;;;;8.85;2.40;;;10.50;99.90;;;;;;5024274;28;20030;-90
2023/11/01 04:42:39;;;;;;;7.57;2.45;;;10.50;99.90;;;;;;5009133;28;20122;-90
2023/11/01 04:45:06;;;;;;;9.77;2.72;;;10.50;99.90;;;;;;5024594;28;20445;-90
2023/11/01 04:47:34;;;;;;;7.00;2.38;;;10.50;99.90;;;;;;5025838;28;20052;-90
2023/11/01 04:50:00;;;;;;;5.22;1.98;;;10.50;99.90;;;;;;5025572;28;20512;-90
2023/11/01 04:52:26;;;;;;;6.90;2.42;;;10.60;99.90;;;;;;5006399;28;20026;-90
2023/11/01 04:54:51;;;;;;;8.23;2.10;;;10.60;99.90;;;;;;5021871;28;20481;-91
2023/11/01 04:57:17;;;;;;;12.15;2.63;;;10.60;99.90;;;;;;5003082;28;20168;-89
2023/11/01 04:59:42;;;;;;;5.88;1.80;;;10.60;99.90;;;;;;5007963;28;20040;-89
2023/11/01 05:02:08;;;;;;;6.45;1.95;;;10.60;99.90;;;;;;5024165;28;20109;-89
2023/11/01 05:04:35;;;;;;;6.13;2.10;;;10.60;99.90;;;;;;5005521;28;20026;-90
2023/11/01 05:07:00;;;;;;;11.65;1.90;;;10.60;99.90;;;;;;5024972;28;20034;-90
2023/11/01 05:09:26;;;;;;;3.88;1.40;;;10.70;99.90;;;;;;5006197;28;20490;-90
2023/11/01 05:11:52;;;;;;;4.75;1.65;;;10.70;99.90;;;;;;5012374;28;20498;-89
2023/11/01 05:14:18;;;;;;;3.88;1.40;;;10.70;99.90;;;;;;5012760;28;20109;-89
2023/11/01 05:16:45;;;;;;;5.13;1.45;;;10.70;99.90;;;;;;5006178;28;20053;-90
2023/11/01 05:19:10;;;;;;;5.53;1.30;;;10.80;99.90;;;;;;5004567;28;20093;-89
2023/11/01 05:21:36;;;;;;;6.15;1.50;;;10.80;99.90;;;;;;5025290;28;20026;-89
2023/11/01 05:24:03;;;;;;;4.38;1.40;;;10.80;99.90;;;;;;5009470;28;20057;-90
2023/11/01 05:26:34;;;;;;;4.10;1.40;;;10.90;99.90;;;;;;5022788;28;20038;-89
2023/11/01 05:29:01;;;;;;;6.90;1.50;;;10.90;99.90;;;;;;5027446;28;20038;-89
2023/11/01 05:31:27;;;;;;;5.00;1.58;;;10.90;99.90;;;;;;5004444;28;20099;-89
2023/11/01 05:33:53;;;;;;;4.63;1.40;;;10.90;99.90;;;;;;5009733;28;20033;-89
2023/11/01 05:36:19;;;;;;;5.60;1.38;;;10.90;99.90;;;;;;5007195;28;20440;-89
2023/11/01 05:38:45;;;;;;;5.55;1.40;;;10.90;99.90;;;;;;5024854;28;20041;-89
2023/11/01 05:41:11;;;;;;;3.65;1.40;;;10.90;99.90;;;;;;5025226;28;20630;-89
2023/11/01 05:43:38;;;;;;;8.32;1.40;;;11.00;99.90;;;;;;5026775;28;20034;-89
2023/11/01 05:46:05;;;;;;;4.93;1.40;;;11.00;99.90;;;;;;5025252;28;20029;-90
2023/11/01 05:48:34;;;;;;;4.20;1.40;;;11.00;99.90;;;;;;5023725;28;20720;-89
2023/11/01 05:51:00;;;;;;;4.63;1.30;;;11.00;99.90;;;;;;5012054;28;20033;-89
2023/11/01 05:53:26;;;;;;;3.65;1.10;;;11.00;99.90;;;;;;5001450;28;20030;-89
2023/11/01 05:55:55;;;;;;;3.83;1.30;;;11.00;99.90;;;;;;5010030;28;20485;-89
2023/11/01 05:58:21;;;;;;;3.40;1.10;;;11.00;99.90;;;;;;5027238;28;20049;-90
2023/11/01 06:00:48;;;;;;;2.95;1.13;;;11.10;99.90;;;;;;5002365;28;20045;-89
2023/11/01 06:03:14;;;;;;;4.10;1.33;;;11.10;99.90;;;;;;5005419;28;20888;-89
2023/11/01 06:05:40;;;;;;;4.05;1.40;;;11.10;99.90;;;;;;5011811;28;20478;-88
2023/11/01 06:08:08;;;;;;;4.15;1.40;;;11.10;99.90;;;;;;5011175;28;20553;-90
2023/11/01 06:10:37;;;;;;;6.40;1.85;;;11.10;99.90;;;;;;5026082;28;20041;-90
2023/11/01 06:13:07;;;;;;;5.88;1.40;;;11.10;99.90;;;;;;5023767;28;20042;-90
2023/11/01 06:15:33;;;;;;;3.78;1.13;;;11.10;99.90;;;;;;5010177;28;20025;-90
2023/11/01 06:17:59;;;;;;;4.32;1.50;;;11.10;99.90;;;;;;5025836;28;20044;-90
2023/11/01 06:20:25;;;;;;;6.82;1.63;;;11.10;99.90;;;;;;5026072;28;20121;-90
2023/11/01 06:22:51;;;;;;;6.32;1.60;;;11.10;99.90;;;;;;5008307;28;20038;-90
2023/11/01 06:25:20;;;;;;;6.25;1.83;;;11.10;99.90;;;;;;5009058;28;20040;-90
2023/11/01 06:27:45;;;;;;;6.65;1.70;;;11.10;99.90;;;;;;5009656;28;20080;-90
2023/11/01 06:30:13;;;;;;;7.28;1.70;;;11.10;99.90;;;;;;5004783;28;20601;-90
2023/11/01 06:32:39;;;;;;;5.78;1.60;;;11.20;99.90;;;;;;5009427;28;20049;-90
2023/11/01 06:35:05;;;;;;;6.60;1.52;;;11.10;99.90;;;;;;5000916;28;20057;-90
2023/11/01 06:37:31;;;;;;;3.78;1.48;;;11.10;99.90;;;;;;5023656;28;20034;-91
2023/11/01 06:39:56;;;;;;;7.53;2.30;;;11.20;99.90;;;;;;5021370;28;20093;-91
2023/11/01 06:42:22;;;;;;;6.43;1.70;;;11.20;99.90;;;;;;5025758;28;20029;-91
2023/11/01 06:44:48;;;;;;;7.72;2.15;;;11.20;99.90;;;;;;5025974;28;20034;-91
2023/11/01 06:47:14;;;;;;;6.43;1.67;;;11.20;99.90;;;;;;5011815;28;20042;-90
2023/11/01 06:49:39;;;;;;;6.97;1.85;;;11.30;99.90;;;;;;5030384;28;20041;-91
2023/11/01 06:52:06;;;;;;;12.80;1.73;;;11.30;99.90;;;;;;5044739;28;20025;-91
2023/11/01 06:54:32;;;;;;;10.07;2.13;;;11.30;99.90;;;;;;5028935;28;20125;-90
2023/11/01 06:56:58;;;;;;;7.50;2.05;;;11.30;99.90;;;;;;5043647;28;20072;-90
2023/11/01 06:59:24;;;;;;;10.98;2.30;;;11.30;99.90;;;;;;5030400;28;20112;-90
2023/11/01 07:01:49;;;;;;;9.32;2.53;;;11.30;99.90;;;;;;5043433;28;20025;-90
2023/11/01 07:04:15;;;;;;;8.10;2.30;;;11.30;99.90;;;;;;5034297;28;20025;-89
2023/11/01 07:06:42;;;;;;;7.45;2.50;;;11.40;99.90;;;;;;5030144;28;20033;-90
2023/11/01 07:09:09;;;;;;;8.18;2.20;;;11.40;99.90;;;;;;5041062;28;20033;-90
2023/11/01 07:11:38;;;;;;;5.45;1.85;;;11.40;99.90;;;;;;5025390;28;20033;-90
2023/11/01 07:14:06;;;;;;;8.02;2.20;;;11.50;99.90;;;;;;5042351;28;20033;-90
2023/11/01 07:16:35;;;;;;;8.13;1.92;;;11.40;99.90;;;;;;5028857;28;20032;-89
2023/11/01 07:19:01;;;;;;;8.80;1.70;;;11.50;99.90;;;;;;5043988;28;20052;-90
2023/11/01 07:21:28;;;;;;;5.43;1.35;;;11.50;99.90;;;;;;5031396;28;20459;-89
2023/11/01 07:23:53;;;;;;;6.20;1.67;;;11.60;99.90;;;;;;5043237;28;20071;-89
2023/11/01 07:26:19;;;;;;;10.38;2.35;;;11.60;99.90;;;;;;5039936;28;20033;-89
2023/11/01 07:28:45;;;;;;;8.80;1.98;;;11.60;99.90;;;;;;5027447;28;20025;-89
2023/11/01 07:31:11;;;;;;;4.65;1.50;;;11.60;99.90;;;;;;5036686;28;20392;-89
2023/11/01 07:33:40;;;;;;;6.93;1.75;;;11.70;99.90;;;;;;5035548;28;20370;-89
2023/11/01 07:36:08;;;;;;;9.52;2.22;;;11.70;99.90;;;;;;5029525;28;20025;-89
2023/11/01 07:38:34;;;;;;;5.90;1.70;;;11.70;99.90;;;;;;5040694;28;20574;-89
2023/11/01 07:41:00;;;;;;;7.93;1.52;;;11.70;99.90;;;;;;5044820;28;20029;-89
2023/11/01 07:43:25;;;;;;;6.68;1.48;;;11.70;99.90;;;;;;5044881;28;20030;-89
2023/11/01 07:45:52;;;;;;;8.70;1.80;;;11.80;99.90;;;;;;5040593;28;20040;-89
2023/11/01 07:48:18;;;;;;;7.03;1.90;;;11.80;99.90;;;;;;5006869;28;20523;-89
2023/11/01 07:50:44;;;;;;;5.53;1.20;;;11.80;99.90;;;;;;5009519;28;20037;-89
2023/11/01 07:53:10;;;;;;;5.68;1.38;;;11.90;99.90;;;;;;5007575;28;20026;-89
2023/11/01 07:55:35;;;;;;;9.90;1.80;;;11.90;99.90;;;;;;5024897;28;20432;-89
2023/11/01 07:58:01;;;;;;;6.00;1.63;;;11.90;99.90;;;;;;5022951;28;20099;-89
2023/11/01 08:00:26;;;;;;;9.23;1.60;;;12.00;99.90;;;;;;5023897;28;20065;-88
2023/11/01 08:02:55;;;;;;;6.53;1.70;;;12.00;99.90;;;;;;5005298;28;20525;-89
2023/11/01 08:05:22;;;;;;;7.60;1.70;;;12.10;99.90;;;;;;4998239;28;20696;-89
2023/11/01 08:07:48;;;;;;;6.03;1.35;;;12.10;99.90;;;;;;5007951;28;20034;-89
2023/11/01 08:10:14;;;;;;;7.68;1.73;;;12.10;99.90;;;;;;5008287;28;20038;-89
2023/11/01 08:12:40;;;;;;;4.40;1.45;;;12.20;99.90;;;;;;5006989;28;20092;-89
2023/11/01 08:15:06;;;;;;;5.68;1.50;;;12.30;99.90;;;;;;5005376;28;20540;-89
2023/11/01 08:17:32;;;;;;;7.13;1.60;;;12.40;99.90;;;;;;5020808;28;20057;-89
2023/11/01 08:19:58;;;;;;;4.80;1.30;;;12.50;99.90;;;;;;5003117;28;20037;-88
2023/11/01 08:22:25;;;;;;;8.00;1.75;;;12.70;99.90;;;;;;5027899;28;20057;-88
2023/11/01 08:24:50;;;;;;;8.15;2.40;;;12.80;99.90;;;;;;5007521;28;20026;-88
2023/11/01 08:27:16;;;;;;;7.13;1.50;;;12.90;99.90;;;;;;5004035;28;20056;-88
2023/11/01 08:29:43;;;;;;;5.00;1.35;;;12.90;99.90;;;;;;5008119;28;20034;-87
2023/11/01 08:32:09;;;;;;;8.00;1.70;;;12.90;99.90;;;;;;5026363;28;20034;-88
2023/11/01 08:34:35;;;;;;;7.75;1.90;;;13.00;99.90;;;;;;5011828;28;20041;-89
2023/11/01 08:37:02;;;;;;;6.68;1.60;;;13.10;99.90;;;;;;5021827;28;20026;-88
2023/11/01 08:39:28;;;;;;;6.53;1.38;;;13.30;99.90;;;;;;5028232;28;20470;-88
2023/11/01 08:41:53;;;;;;;7.63;1.90;;;13.30;99.90;;;;;;5008713;28;20083;-87
2023/11/01 08:44:19;;;;;;;8.82;1.67;;;13.50;99.90;;;;;;5011412;28;20114;-87
2023/11/01 08:46:45;;;;;;;5.57;1.35;;;13.60;99.90;;;;;;5015621;28;20497;-88
2023/11/01 08:49:11;;;;;;;11.10;2.00;;;13.60;99.90;;;;;;5054103;28;20064;-88
2023/11/01 08:51:39;;;;;;;7.10;1.42;;;13.50;99.90;;;;;;5037117;28;20511;-88
2023/11/01 08:54:05;;;;;;;7.40;1.55;;;13.40;99.90;;;;;;5048198;28;20033;-88
2023/11/01 08:56:31;;;;;;;9.85;1.58;;;13.40;99.90;;;;;;5053428;28;20087;-88
2023/11/01 08:58:56;;;;;;;7.07;1.48;;;13.40;99.90;;;;;;5052310;28;20057;-88
2023/11/01 09:01:22;;;;;;;4.93;1.20;;;13.40;99.90;;;;;;5048257;28;20021;-88
2023/11/01 09:03:48;;;;;;;5.68;1.05;;;13.50;99.90;;;;;;5050758;28;20136;-88
2023/11/01 09:06:13;;;;;;;9.27;1.70;;;13.70;99.90;;;;;;5038884;28;20025;-88
2023/11/01 09:08:39;;;;;;;6.07;1.40;;;13.90;99.90;;;;;;5035346;28;20036;-88
2023/11/01 09:11:05;;;;;;;9.45;1.23;;;14.10;99.90;;;;;;5052083;28;20500;-88
2023/11/01 09:13:30;;;;;;;5.53;1.42;;;14.20;99.90;;;;;;5038140;28;20412;-89
2023/11/01 09:15:56;;;;;;;7.45;1.70;;;14.30;99.90;;;;;;5048922;28;20052;-88
2023/11/01 09:18:22;;;;;;;6.85;1.50;;;14.40;99.90;;;;;;5046757;28;20036;-89
2023/11/01 09:20:48;;;;;;;3.28;1.00;;;14.70;99.90;;;;;;5028087;28;20171;-88
2023/11/01 09:23:14;;;;;;;8.40;1.38;;;14.80;99.90;;;;;;5037919;28;20029;-88
2023/11/01 09:25:40;;;;;;;8.55;1.23;;;14.90;99.90;;;;;;5040944;28;20040;-88
2023/11/01 09:28:06;;;;;;;4.78;1.20;;;15.30;99.90;;;;;;5039446;28;20021;-88
2023/11/01 09:30:32;;;;;;;7.53;1.23;;;15.20;99.90;;;;;;5034158;28;20075;-89
2023/11/01 09:32:57;;;;;;;4.20;1.15;;;15.00;99.90;;;;;;5032973;28;20533;-88
2023/11/01 09:35:23;;;;;;;3.80;1.33;;;14.80;99.90;;;;;;5053476;28;20029;-88
2023/11/01 09:37:49;;;;;;;3.88;1.10;;;14.60;99.90;;;;;;5051004;28;20017;-89
2023/11/01 09:40:14;;;;;;;5.55;1.25;;;14.50;99.90;;;;;;5057739;28;20480;-89
2023/11/01 09:42:40;;;;;;;5.72;1.33;;;14.40;99.90;;;;;;5034379;28;20408;-89
2023/11/01 09:45:11;;;;;;;5.45;1.33;;;14.20;99.90;;;;;;5052058;28;20044;-89
2023/11/01 09:47:39;;;;;;;5.95;1.20;;;14.20;99.90;;;;;;5023627;28;20540;-89
2023/11/01 09:50:09;;;;;;;6.38;1.30;;;14.20;99.90;;;;;;5011368;28;20105;-89
2023/11/01 09:52:35;;;;;;;5.80;1.30;;;14.30;99.90;;;;;;5005951;28;20068;-89
2023/11/01 09:55:02;;;;;;;7.30;1.38;;;14.30;99.90;;;;;;5024836;28;20038;-89
2023/11/01 09:57:29;;;;;;;8.57;1.48;;;14.30;99.90;;;;;;5022407;28;20065;-89
2023/11/01 09:59:55;;;;;;;3.33;1.02;;;14.20;99.90;;;;;;5008008;28;20092;-89
2023/11/01 10:02:22;;;;;;;5.97;1.40;;;14.20;99.90;;;;;;5005306;28;20049;-89
2023/11/01 10:04:50;;;;;;;4.20;1.33;;;14.20;99.90;;;;;;5008690;28;20091;-89
2023/11/01 10:07:15;;;;;;;6.10;2.05;;;14.10;99.90;;;;;;5020868;28;20439;-89
2023/11/01 10:09:42;;;;;;;8.85;1.40;;;14.10;99.90;;;;;;5003208;28;20097;-89
2023/11/01 10:12:08;;;;;;;4.32;1.27;;;14.20;99.90;;;;;;5025981;28;20061;-89
2023/11/01 10:14:36;;;;;;;4.43;1.10;;;14.20;99.90;;;;;;5020893;28;20041;-89
2023/11/01 10:17:03;;;;;;;6.03;1.30;;;14.50;99.90;;;;;;5006663;28;20112;-89
2023/11/01 10:19:29;;;;;;;4.55;1.10;;;14.90;99.90;;;;;;5006552;28;20037;-89
2023/11/01 10:21:55;;;;;;;6.35;1.40;;;15.20;99.90;;;;;;5022632;28;20083;-89
2023/11/01 10:24:28;;;;;;;6.65;1.40;;;15.50;99.90;;;;;;5007649;28;20402;-89
2023/11/01 10:26:55;;;;;;;2.90;0.98;;;15.60;99.90;;;;;;5023590;28;20027;-89
2023/11/01 10:29:21;;;;;;;4.47;1.15;;;15.60;99.90;;;;;;5026434;28;20600;-89
2023/11/01 10:31:59;;;;;;;5.38;1.10;;;15.30;99.90;;;;;;5021753;28;20037;-91
2023/11/01 10:34:30;;;;;;;6.47;1.25;;;15.00;99.90;;;;;;5024317;28;20022;-91
2023/11/01 10:36:58;;;;;;;5.10;1.50;;;14.80;99.90;;;;;;5009620;28;20038;-90
2023/11/01 10:39:24;;;;;;;3.95;1.10;;;14.80;99.90;;;;;;5010871;28;20026;-89
2023/11/01 10:41:54;;;;;;;7.00;1.52;;;14.80;99.90;;;;;;5031707;28;20037;-89
2023/11/01 10:44:21;;;;;;;9.05;1.38;;;14.70;99.90;;;;;;5007117;28;20112;-89
2023/11/01 10:46:48;;;;;;;7.75;1.33;;;14.70;99.90;;;;;;5009579;28;20045;-90
2023/11/01 10:49:14;;;;;;;8.43;1.45;;;14.60;99.90;;;;;;5050665;28;20488;-90
2023/11/01 10:51:41;;;;;;;6.43;1.67;;;14.70;99.90;;;;;;5043237;28;20115;-90
2023/11/01 10:54:08;;;;;;;8.63;1.63;;;14.70;99.90;;;;;;5050517;28;20445;-90
2023/11/01 10:56:35;;;;;;;7.80;1.15;;;14.80;99.90;;;;;;5033384;28;20029;-89
2023/11/01 10:59:16;;;;;;;5.50;1.27;;;15.00;99.90;;;;;;5034374;28;20116;-89
2023/11/01 11:01:49;;;;;;;8.38;2.13;;;15.30;99.90;;;;;;5047829;28;20614;-90
2023/11/01 11:04:20;;;;;;;10.93;1.33;;;15.90;99.90;;;;;;5051062;28;20025;-90
2023/11/01 11:06:55;;;;;;;6.15;1.30;;;16.40;99.90;;;;;;5041453;28;20116;-89
2023/11/01 11:09:23;;;;;;;8.38;1.63;;;16.40;99.90;;;;;;5050305;28;20083;-90
2023/11/01 11:12:11;;;;;;;8.20;1.52;;;16.60;99.90;;;;;;5047773;28;20032;-90
2023/11/01 11:14:47;;;;;;;8.05;1.40;;;16.40;99.90;;;;;;5048558;28;20112;-89
2023/11/01 11:17:17;;;;;;;5.72;1.20;;;16.20;99.90;;;;;;5030849;28;20032;-90
2023/11/01 11:20:02;;;;;;;;;;;16.20;99.90;;;;;;5048587;28;20037;-90
2023/11/01 11:23:04;;;;;;;5.72;1.10;;;16.10;99.90;;;;;;5046792;28;20307;-90
2023/11/01 11:25:38;;;;;;;6.65;1.25;;;16.70;99.90;;;;;;5039708;28;20036;-90
2023/11/01 11:28:22;;;;;;;7.38;1.95;;;16.90;99.90;;;;;;5045096;28;20395;-90
2023/11/01 11:31:14;;;;;;;7.35;1.20;;;17.10;99.90;;;;;;5038547;28;20080;-90
2023/11/01 11:33:49;;;;;;;7.10;0.95;;;17.60;99.70;;;;;;5049257;28;20024;-90
2023/11/01 11:36:19;;;;;;;6.15;1.15;;;17.60;98.90;;;;;;5047779;28;20021;-90
2023/11/01 11:39:05;;;;;;;5.95;1.25;;;17.20;99.20;;;;;;5047036;28;20036;-90
2023/11/01 11:41:37;;;;;;;3.05;0.85;;;17.00;99.00;;;;;;5030707;28;20403;-90
2023/11/01 11:44:16;;;;;;;6.93;1.38;;;17.20;99.90;;;;;;5045142;28;20396;-90
2023/11/01 11:46:59;;;;;;;7.30;1.23;;;17.40;99.90;;;;;;5030669;28;20029;-90
2023/11/01 11:49:27;;;;;;;7.32;1.55;;;17.30;99.60;;;;;;5033814;28;20093;-91
2023/11/01 11:52:13;;;;;;;5.47;1.23;;;16.90;99.70;;;;;;5030772;28;20033;-90
2023/11/01 11:54:39;;;;;;;10.35;1.50;;;16.60;99.90;;;;;;5030607;28;20488;-90
2023/11/01 11:57:11;;;;;;;7.00;1.30;;;16.20;99.90;;;;;;5046681;28;20025;-90
2023/11/01 11:59:41;;;;;;;4.93;1.20;;;15.90;99.90;;;;;;5029725;28;20056;-90
2023/11/01 12:02:10;;;;;;;;;;;15.70;99.90;;;;;;5026590;28;20065;-89
2023/11/01 12:04:37;;;;;;;6.67;1.50;;;15.50;99.90;;;;;;5028311;28;19919;-90
2023/11/01 12:07:03;;;;;;;5.18;1.77;;;15.40;99.90;;;;;;5030618;28;20025;-90
2023/11/01 12:09:30;;;;;;;7.53;1.60;;;15.50;99.90;;;;;;5030326;28;20033;-90
2023/11/01 12:11:57;;;;;;;6.82;1.63;;;15.40;99.90;;;;;;5032757;28;20032;-90
2023/11/01 12:14:24;;;;;;;5.82;1.33;;;15.40;99.90;;;;;;5034438;28;20036;-89
2023/11/01 12:16:53;;;;;;;8.93;1.42;;;15.30;99.90;;;;;;5050931;28;20144;-89
2023/11/01 12:19:24;;;;;;;6.57;1.50;;;15.40;99.90;;;;;;5033492;28;20037;-89
2023/11/01 12:21:58;;;;;;;4.97;1.30;;;15.40;99.90;;;;;;5052168;28;20029;-90
2023/11/01 12:24:47;;;;;;;8.45;1.55;;;15.40;99.90;;;;;;5050885;28;20045;-90
2023/11/01 12:27:18;;;;;;;6.30;1.50;;;15.40;99.90;;;;;;5044879;28;20917;-89
2023/11/01 12:29:51;;;;;;;6.13;1.95;;;15.60;99.90;;;;;;5052304;28;20132;-89
2023/11/01 12:32:31;;;;;;;6.68;1.60;;;15.90;99.90;;;;;;5050891;28;20167;-88
2023/11/01 12:34:57;;;;;;;8.40;1.98;;;16.20;99.90;;;;;;5042140;28;20032;-89
2023/11/01 12:37:24;;;;;;;6.32;1.85;;;16.70;99.90;;;;;;5052950;28;20080;-89
2023/11/01 12:40:07;;;;;;;7.28;1.38;;;16.90;99.90;;;;;;5053324;28;20029;-89
2023/11/01 12:42:34;;;;;;;5.82;1.70;;;16.80;99.90;;;;;;5052856;28;20021;-89
2023/11/01 12:45:00;;;;;;;7.72;2.13;;;16.40;99.90;;;;;;5050171;28;20029;-89
2023/11/01 12:47:31;;;;;;;6.40;1.40;;;16.20;99.90;;;;;;5028540;28;20049;-89